Time;durP1;ratioP1;P1;durP2;ratioP2;P2;SDS_P1;SDS_P2;PMS_P1;PMS_P2;Temp;Humidity;BMP_temperature;BMP_pressure;BME280_temperature;BME280_humidity;BME280_pressure;Samples;Min_cycle;Max_cycle;Signal;HPM_P1;HPM_P2
2023/06/17 00:00:11;;;;;;;;;21.00;19.33;;;;;27.05;29.06;101232.03;5099287;27;47964;-49
2023/06/17 00:02:37;;;;;;;;;22.00;21.00;;;;;27.06;29.33;101233.75;5085851;27;45360;-45
2023/06/17 00:05:02;;;;;;;;;21.67;20.33;;;;;27.04;29.54;101233.09;5080448;27;49169;-47
2023/06/17 00:07:28;;;;;;;;;21.67;21.33;;;;;27.02;29.24;101226.94;5095798;27;45527;-47
2023/06/17 00:09:54;;;;;;;;;26.00;22.33;;;;;26.97;29.63;101232.06;5080860;27;46056;-47
2023/06/17 00:12:21;;;;;;;;;25.00;20.67;;;;;26.90;29.29;101224.56;5087200;27;45592;-47
2023/06/17 00:14:47;;;;;;;;;23.00;21.67;;;;;26.87;29.66;101222.19;5082382;27;45504;-46
2023/06/17 00:17:12;;;;;;;;;24.33;20.33;;;;;26.84;29.89;101225.28;5083366;27;45447;-46
2023/06/17 00:19:38;;;;;;;;;23.67;22.67;;;;;26.82;29.82;101223.75;5085092;27;45610;-47
2023/06/17 00:22:04;;;;;;;;;20.00;20.00;;;;;26.79;29.86;101219.50;5087088;27;45530;-48
2023/06/17 00:24:29;;;;;;;;;25.00;25.00;;;;;26.77;30.20;101226.16;5086966;27;45411;-50
2023/06/17 00:26:55;;;;;;;;;21.00;21.00;;;;;26.73;30.26;101218.28;5089042;27;57777;-50
2023/06/17 00:29:21;;;;;;;;;22.67;21.00;;;;;26.70;30.10;101215.88;5084778;27;68225;-47
2023/06/17 00:31:46;;;;;;;;;26.33;24.67;;;;;26.67;30.01;101216.22;5083532;27;45590;-48
2023/06/17 00:34:11;;;;;;;;;23.33;23.33;;;;;26.66;30.16;101219.13;5081305;27;45414;-47
2023/06/17 00:36:37;;;;;;;;;24.33;23.33;;;;;26.65;29.72;101212.81;5089546;27;56424;-49
2023/06/17 00:39:02;;;;;;;;;23.67;21.00;;;;;26.61;29.57;101203.28;5080810;27;70644;-47
2023/06/17 00:41:27;;;;;;;;;23.67;23.33;;;;;26.57;29.98;101201.94;5095652;27;46223;-46
2023/06/17 00:43:53;;;;;;;;;25.00;24.00;;;;;26.54;30.08;101200.41;5084380;27;60582;-50
2023/06/17 00:46:40;;;;;;;;;22.33;22.00;;;;;26.51;30.49;101195.28;5076958;27;69761;-48
2023/06/17 00:49:09;;;;;;;;;24.67;23.67;;;;;26.48;30.07;101195.63;5085630;27;47529;-47
2023/06/17 00:51:34;;;;;;;;;25.33;25.33;;;;;26.46;30.48;101189.50;5083315;27;45404;-47
2023/06/17 00:54:00;;;;;;;;;26.33;23.33;;;;;26.45;30.42;101189.66;5078929;27;46501;-48
2023/06/17 00:56:33;;;;;;;;;26.33;23.67;;;;;26.42;30.85;101185.41;5084673;27;45482;-47
2023/06/17 00:59:01;;;;;;;;;27.00;25.33;;;;;26.40;30.54;101179.28;5086753;27;46360;-48
2023/06/17 01:01:26;;;;;;;;;21.00;20.00;;;;;26.39;31.21;101180.31;5086053;27;45530;-53
2023/06/17 01:03:52;;;;;;;;;22.00;22.00;;;;;26.36;31.28;101175.19;5089635;27;45541;-48
2023/06/17 01:06:25;;;;;;;;;27.67;24.00;;;;;26.33;31.19;101179.09;5088571;27;45574;-50
2023/06/17 01:09:01;;;;;;;;;24.67;24.00;;;;;26.50;31.23;101177.22;5086529;27;46285;-48
2023/06/17 01:11:27;;;;;;;;;23.67;21.00;;;;;26.36;31.02;101172.47;5085888;27;45420;-48
2023/06/17 01:13:55;;;;;;;;;23.67;22.00;;;;;26.36;31.22;101164.28;5080955;27;45468;-49
2023/06/17 01:16:21;;;;;;;;;23.00;22.00;;;;;26.31;31.15;101169.38;5086358;27;45339;-49
2023/06/17 01:18:48;;;;;;;;;25.00;24.00;;;;;26.22;31.72;101161.22;5090074;27;54682;-46
2023/06/17 01:21:15;;;;;;;;;24.33;21.67;;;;;26.21;31.40;101172.31;5089349;27;45334;-48
2023/06/17 01:23:41;;;;;;;;;25.00;25.00;;;;;26.20;31.54;101171.44;5089289;27;45494;-50
2023/06/17 01:26:07;;;;;;;;;28.00;24.67;;;;;26.20;32.00;101165.16;5089655;27;45624;-48
2023/06/17 01:28:33;;;;;;;;;24.67;24.33;;;;;26.19;31.22;101168.88;5088366;27;45684;-49
2023/06/17 01:30:59;;;;;;;;;23.33;23.33;;;;;26.18;31.63;101161.72;5085487;27;45425;-47
2023/06/17 01:33:25;;;;;;;;;21.00;21.00;;;;;26.20;32.21;101165.16;5091266;27;45538;-48
2023/06/17 01:35:57;;;;;;;;;26.33;23.67;;;;;26.21;31.44;101166.84;5088627;27;45891;-47
2023/06/17 01:38:32;;;;;;;;;26.00;25.00;;;;;26.23;31.74;101154.75;5089872;27;45523;-49
2023/06/17 01:41:02;;;;;;;;;30.33;25.33;;;;;26.25;31.47;101155.44;5101976;27;45994;-48
2023/06/17 01:43:30;;;;;;;;;25.67;24.33;;;;;26.27;32.12;101157.13;5097238;27;45511;-49
2023/06/17 01:45:57;;;;;;;;;29.00;25.67;;;;;26.25;32.29;101158.16;5081145;27;45424;-47
2023/06/17 01:48:23;;;;;;;;;30.00;28.67;;;;;26.24;31.83;101150.16;5086820;27;47458;-47
2023/06/17 01:50:48;;;;;;;;;25.00;24.00;;;;;26.20;32.61;101148.78;5089464;27;45652;-45
2023/06/17 01:53:13;;;;;;;;;29.67;29.67;;;;;26.13;32.65;101147.78;5088790;27;45419;-46
2023/06/17 01:55:39;;;;;;;;;33.00;30.33;;;;;26.04;32.96;101145.03;5083797;27;68716;-46
2023/06/17 01:58:04;;;;;;;;;35.00;30.33;;;;;25.99;32.79;101152.84;5086158;27;45469;-46
2023/06/17 02:00:29;;;;;;;;;34.33;32.00;;;;;25.93;32.87;101150.81;5094208;27;72120;-46
2023/06/17 02:02:55;;;;;;;;;35.00;32.00;;;;;25.87;33.17;101146.03;5097633;27;45707;-46
2023/06/17 02:05:20;;;;;;;;;31.67;29.33;;;;;25.81;33.51;101142.09;5080083;27;61686;-46
2023/06/17 02:07:47;;;;;;;;;35.67;32.00;;;;;25.77;33.92;101154.34;5092212;27;46468;-47
2023/06/17 02:10:12;;;;;;;;;35.67;33.00;;;;;25.71;34.73;101153.16;5082050;27;45428;-47
2023/06/17 02:12:38;;;;;;;;;43.33;36.00;;;;;25.68;34.39;101155.38;5083185;27;45456;-47
2023/06/17 02:15:03;;;;;;;;;35.00;32.00;;;;;25.64;33.87;101156.72;5086257;27;65702;-46
2023/06/17 02:17:29;;;;;;;;;36.67;33.00;;;;;25.60;34.78;101153.47;5090821;27;45354;-46
2023/06/17 02:19:54;;;;;;;;;41.67;34.00;;;;;25.54;34.03;101155.00;5090339;27;64099;-46
2023/06/17 02:22:20;;;;;;;;;41.00;35.67;;;;;25.50;34.28;101150.94;5094537;27;45533;-47
2023/06/17 02:24:46;;;;;;;;;37.00;33.67;;;;;25.49;34.35;101137.44;5091136;27;68151;-49
2023/06/17 02:27:12;;;;;;;;;35.00;33.00;;;;;25.46;34.55;101141.38;5083927;27;46187;-50
2023/06/17 02:29:37;;;;;;;;;35.67;31.00;;;;;25.44;34.35;101137.97;5089192;27;45479;-47
2023/06/17 02:32:03;;;;;;;;;36.67;33.00;;;;;25.43;34.65;101141.72;5087531;27;45498;-46
2023/06/17 02:34:28;;;;;;;;;35.33;32.67;;;;;25.43;35.29;101134.41;5090039;27;45552;-47
2023/06/17 02:36:56;;;;;;;;;33.00;31.33;;;;;25.43;35.38;101130.81;5087142;27;45541;-46
2023/06/17 02:39:22;;;;;;;;;36.00;30.67;;;;;25.40;34.98;101132.00;5088175;27;45425;-46
2023/06/17 02:41:47;;;;;;;;;38.00;32.33;;;;;25.38;35.63;101128.63;5089667;27;45351;-48
2023/06/17 02:44:13;;;;;;;;;36.00;31.67;;;;;25.35;35.36;101111.75;5094641;27;45652;-46
2023/06/17 02:46:38;;;;;;;;;37.67;32.00;;;;;25.31;35.58;101110.34;5082907;27;46218;-46
2023/06/17 02:49:03;;;;;;;;;36.67;30.67;;;;;25.30;35.83;101108.66;5087058;27;65893;-46
2023/06/17 02:51:29;;;;;;;;;40.00;33.00;;;;;25.27;35.46;101107.94;5082602;27;65657;-48
2023/06/17 02:53:54;;;;;;;;;38.67;32.67;;;;;25.28;35.19;101100.66;5085165;27;45467;-46
2023/06/17 02:56:19;;;;;;;;;38.67;32.00;;;;;25.31;35.34;101104.91;5080671;27;45469;-46
2023/06/17 02:58:45;;;;;;;;;34.33;31.33;;;;;25.31;35.82;101110.34;5080985;27;55168;-46
2023/06/17 03:01:12;;;;;;;;;37.00;31.67;;;;;25.35;35.57;101107.16;5079811;27;45527;-46
2023/06/17 03:03:38;;;;;;;;;34.33;32.00;;;;;25.37;35.79;101098.81;5091038;27;45504;-46
2023/06/17 03:06:07;;;;;;;;;35.67;32.33;;;;;25.37;35.36;101098.81;5079400;27;46089;-48
2023/06/17 03:08:34;;;;;;;;;34.33;31.00;;;;;25.35;35.59;101098.97;5085485;27;45356;-46
2023/06/17 03:11:00;;;;;;;;;32.67;30.67;;;;;25.34;35.85;101101.84;5096015;27;45454;-47
2023/06/17 03:13:28;;;;;;;;;32.33;30.67;;;;;25.32;35.75;101101.16;5103749;27;45652;-46
2023/06/17 03:15:55;;;;;;;;;35.33;32.33;;;;;25.30;36.18;101092.31;5083173;27;46246;-46
2023/06/17 03:18:21;;;;;;;;;36.00;31.67;;;;;25.31;35.65;101102.19;5083021;27;45586;-51
2023/06/17 03:20:47;;;;;;;;;33.33;30.67;;;;;25.29;35.84;101094.16;5086391;27;45421;-49
2023/06/17 03:23:13;;;;;;;;;30.67;28.00;;;;;25.31;36.34;101099.47;5088620;27;45522;-49
2023/06/17 03:25:38;;;;;;;;;31.33;30.33;;;;;25.32;35.96;101102.00;5084669;27;45957;-48
2023/06/17 03:28:05;;;;;;;;;36.00;32.00;;;;;25.34;36.26;101099.13;5086080;27;60582;-46
2023/06/17 03:30:30;;;;;;;;;29.33;29.33;;;;;25.34;36.24;101099.97;5090376;27;45601;-46
2023/06/17 03:32:57;;;;;;;;;30.00;29.67;;;;;25.35;36.33;101095.41;5093902;27;49549;-48
2023/06/17 03:35:23;;;;;;;;;30.33;28.00;;;;;25.33;36.58;101091.97;5080423;27;46133;-48
2023/06/17 03:37:49;;;;;;;;;30.00;29.67;;;;;25.33;36.64;101094.69;5083881;27;45354;-49
2023/06/17 03:40:14;;;;;;;;;30.00;28.00;;;;;25.34;36.10;101091.78;5089497;27;45404;-49
2023/06/17 03:42:39;;;;;;;;;25.67;24.33;;;;;25.35;36.02;101093.53;5083889;27;45392;-50
2023/06/17 03:45:05;;;;;;;;;24.67;24.00;;;;;25.37;35.97;101090.63;5081068;27;46590;-47
2023/06/17 03:47:31;;;;;;;;;27.00;26.00;;;;;25.38;36.01;101097.78;5081070;27;46005;-48
2023/06/17 03:49:56;;;;;;;;;28.33;26.67;;;;;25.39;36.47;101099.50;5100604;27;70409;-48
2023/06/17 03:52:21;;;;;;;;;30.00;30.00;;;;;25.40;36.52;101096.59;5079015;27;45225;-47
2023/06/17 03:54:47;;;;;;;;;30.67;29.00;;;;;25.42;35.83;101099.16;5082255;27;72603;-48
2023/06/17 03:57:12;;;;;;;;;26.67;25.00;;;;;25.44;36.19;101099.84;5084462;27;65548;-47
2023/06/17 03:59:37;;;;;;;;;26.67;26.67;;;;;25.43;36.37;101099.00;5083859;27;47206;-47
2023/06/17 04:02:03;;;;;;;;;28.67;26.00;;;;;25.42;36.46;101097.31;5079527;27;66664;-48
2023/06/17 04:04:32;;;;;;;;;27.67;26.67;;;;;25.40;35.65;101095.78;5082349;27;45399;-47
2023/06/17 04:06:57;;;;;;;;;28.67;28.67;;;;;25.39;35.79;101107.66;5094139;27;45358;-50
2023/06/17 04:09:23;;;;;;;;;30.67;28.67;;;;;25.35;35.89;101104.41;5089509;27;45422;-48
2023/06/17 04:11:48;;;;;;;;;27.00;26.33;;;;;25.33;35.96;101109.16;5079217;27;45416;-50
2023/06/17 04:14:13;;;;;;;;;26.33;25.00;;;;;25.30;36.54;101103.19;5080838;27;45328;-50
2023/06/17 04:16:41;;;;;;;;;31.00;28.00;;;;;25.29;36.90;101104.22;5093124;27;48446;-48
2023/06/17 04:19:09;;;;;;;;;29.00;28.00;;;;;25.31;36.23;101100.31;5082872;27;45296;-48
2023/06/17 04:21:34;;;;;;;;;27.67;24.33;;;;;25.33;36.73;101098.28;5084280;27;45374;-47
2023/06/17 04:24:00;;;;;;;;;29.00;27.00;;;;;25.34;36.85;101099.13;5079364;27;46368;-51
2023/06/17 04:26:25;;;;;;;;;26.33;24.00;;;;;25.37;36.89;101104.25;5088054;27;45447;-49
2023/06/17 04:28:51;;;;;;;;;22.33;21.67;;;;;25.39;36.24;101102.22;5084089;27;45759;-49
2023/06/17 04:31:16;;;;;;;;;27.00;26.33;;;;;25.39;36.67;101096.78;5078665;27;56404;-48
2023/06/17 04:33:41;;;;;;;;;25.33;23.00;;;;;25.42;37.20;101099.16;5089657;27;45991;-50
2023/06/17 04:36:10;;;;;;;;;28.00;24.00;;;;;25.44;36.99;101102.56;5081805;27;45408;-47
2023/06/17 04:38:42;;;;;;;;;27.67;27.00;;;;;25.49;37.05;101104.78;5082297;27;45410;-48
2023/06/17 04:41:08;;;;;;;;;26.00;24.00;;;;;25.53;36.17;101104.28;5080443;27;45392;-47
2023/06/17 04:43:36;;;;;;;;;26.33;24.00;;;;;25.57;36.87;101108.38;5085004;27;45992;-47
2023/06/17 04:46:02;;;;;;;;;20.00;20.00;;;;;25.59;36.66;101097.31;5082999;27;45405;-53
2023/06/17 04:48:28;;;;;;;;;27.33;26.67;;;;;25.59;36.72;101100.91;5099981;27;45356;-50
2023/06/17 04:50:58;;;;;;;;;24.67;23.67;;;;;25.62;36.86;101097.00;5083562;27;45407;-51
2023/06/17 04:53:23;;;;;;;;;24.00;23.33;;;;;25.66;36.16;101094.78;5092902;27;45423;-51
2023/06/17 04:55:49;;;;;;;;;21.00;21.00;;;;;25.69;35.91;101086.28;5094543;27;45309;-48
2023/06/17 04:58:15;;;;;;;;;24.67;23.00;;;;;25.69;36.25;101084.38;5082250;27;45466;-50
2023/06/17 05:00:40;;;;;;;;;22.00;19.00;;;;;25.74;36.16;101089.34;5093471;27;45541;-51
2023/06/17 05:03:05;;;;;;;;;26.67;25.33;;;;;25.79;35.98;101081.50;5079072;27;70261;-48
2023/06/17 05:05:31;;;;;;;;;17.33;17.00;;;;;25.86;36.04;101082.50;5080215;27;48479;-46
2023/06/17 05:07:56;;;;;;;;;21.00;20.33;;;;;25.93;34.96;101083.56;5081825;27;50742;-48
2023/06/17 05:10:21;;;;;;;;;19.33;18.67;;;;;26.01;35.51;101081.81;5082025;27;65606;-51
2023/06/17 05:12:47;;;;;;;;;22.00;19.33;;;;;26.09;34.87;101082.72;5078272;27;65236;-50
2023/06/17 05:15:12;;;;;;;;;18.00;18.00;;;;;26.18;34.92;101085.41;5086101;27;45719;-48
2023/06/17 05:17:37;;;;;;;;;15.67;15.67;;;;;26.28;34.20;101080.63;5083817;27;45739;-51
2023/06/17 05:20:04;;;;;;;;;17.00;14.00;;;;;26.38;34.35;101083.19;5080023;27;68305;-50
2023/06/17 05:22:29;;;;;;;;;22.00;18.00;;;;;26.49;33.91;101081.94;5083999;27;45983;-51
2023/06/17 05:24:54;;;;;;;;;17.00;16.33;;;;;26.60;34.01;101083.47;5094318;27;69504;-48
2023/06/17 05:27:20;;;;;;;;;17.67;16.67;;;;;26.70;34.10;101078.63;5089560;27;45532;-50
2023/06/17 05:29:45;;;;;;;;;17.33;16.33;;;;;26.84;34.00;101079.81;5081821;27;45378;-50
2023/06/17 05:32:10;;;;;;;;;18.00;17.00;;;;;26.96;33.69;101078.41;5083073;27;45509;-51
2023/06/17 05:34:36;;;;;;;;;19.00;16.33;;;;;27.10;33.44;101081.41;5082131;27;71869;-48
2023/06/17 05:37:01;;;;;;;;;17.33;16.00;;;;;27.22;32.92;101079.94;5091685;27;45509;-47
2023/06/17 05:39:27;;;;;;;;;16.67;16.00;;;;;27.32;32.93;101077.00;5093905;27;45479;-47
2023/06/17 05:41:52;;;;;;;;;20.67;14.67;;;;;27.39;32.67;101078.88;5083985;27;47094;-49
2023/06/17 05:44:17;;;;;;;;;17.00;16.00;;;;;27.47;32.43;101079.81;5081775;27;56442;-48
2023/06/17 05:46:42;;;;;;;;;15.67;15.67;;;;;27.53;32.67;101082.69;5090879;27;50405;-50
2023/06/17 05:49:08;;;;;;;;;17.67;17.67;;;;;27.64;32.41;101077.81;5092120;27;57854;-48
2023/06/17 05:51:33;;;;;;;;;17.67;17.00;;;;;27.67;32.20;101081.03;5093036;27;55254;-49
2023/06/17 05:53:58;;;;;;;;;16.33;16.00;;;;;27.73;32.45;101084.94;5088613;27;45523;-51
2023/06/17 05:56:24;;;;;;;;;13.33;12.00;;;;;27.79;31.33;101077.88;5094269;27;45643;-50
2023/06/17 05:58:50;;;;;;;;;16.00;14.67;;;;;27.84;31.70;101086.38;5090347;27;45476;-49
2023/06/17 06:01:16;;;;;;;;;13.33;13.33;;;;;27.88;31.06;101084.97;5084519;27;46096;-49
2023/06/17 06:03:41;;;;;;;;;17.00;17.00;;;;;27.90;31.42;101081.03;5088220;27;45851;-49
2023/06/17 06:06:07;;;;;;;;;17.00;15.00;;;;;27.97;30.95;101089.31;5089821;27;56875;-50
2023/06/17 06:08:32;;;;;;;;;17.00;17.00;;;;;28.03;31.07;101085.91;5084862;27;45523;-48
2023/06/17 06:10:59;;;;;;;;;18.33;16.67;;;;;28.16;30.98;101093.47;5089824;27;45397;-48
2023/06/17 06:13:24;;;;;;;;;14.00;14.00;;;;;28.32;30.99;101089.72;5095454;27;45461;-51
2023/06/17 06:15:50;;;;;;;;;18.00;18.00;;;;;28.48;30.48;101096.03;5072981;27;45615;-48
2023/06/17 06:18:15;;;;;;;;;18.00;16.33;;;;;28.65;30.59;101105.78;5096429;27;45652;-52
2023/06/17 06:20:40;;;;;;;;;17.33;15.67;;;;;28.76;30.16;101100.88;5084846;27;63334;-48
2023/06/17 06:23:06;;;;;;;;;13.67;12.67;;;;;28.85;29.79;101106.06;5086006;27;45396;-54
2023/06/17 06:25:31;;;;;;;;;15.00;15.00;;;;;29.01;29.71;101098.69;5082202;27;63053;-48
2023/06/17 06:27:58;;;;;;;;;19.33;18.00;;;;;29.14;29.77;101095.25;5084469;27;64301;-52
2023/06/17 06:30:24;;;;;;;;;14.67;14.67;;;;;29.27;29.52;101100.91;5085155;27;48184;-48
2023/06/17 06:32:49;;;;;;;;;15.67;15.33;;;;;29.38;29.17;101105.03;5102962;27;45421;-50
2023/06/17 06:35:15;;;;;;;;;16.67;15.67;;;;;29.44;28.83;101098.78;5089939;27;45458;-51
2023/06/17 06:37:40;;;;;;;;;15.67;14.00;;;;;29.57;28.93;101099.94;5098184;27;45426;-51
2023/06/17 06:40:06;;;;;;;;;15.33;15.33;;;;;29.67;29.15;101105.94;5088582;27;45476;-48
2023/06/17 06:42:32;;;;;;;;;14.33;13.33;;;;;29.78;28.64;101108.19;5095649;27;45458;-50
2023/06/17 06:44:57;;;;;;;;;15.33;13.67;;;;;29.88;28.21;101116.09;5085345;27;54479;-51
2023/06/17 06:47:22;;;;;;;;;20.33;15.67;;;;;29.89;28.34;101119.69;5087878;27;57990;-48
2023/06/17 06:49:48;;;;;;;;;16.33;16.33;;;;;29.85;28.56;101113.72;5085992;27;46397;-51
2023/06/17 06:52:13;;;;;;;;;15.67;15.67;;;;;29.83;28.00;101113.91;5088516;27;47019;-50
2023/06/17 06:54:39;;;;;;;;;15.67;14.33;;;;;29.82;27.74;101120.44;5090196;27;45591;-48
2023/06/17 06:57:04;;;;;;;;;15.33;15.00;;;;;29.82;28.01;101123.19;5090657;27;45330;-50
2023/06/17 06:59:29;;;;;;;;;14.00;14.00;;;;;29.76;27.90;101118.47;5099958;27;45462;-49
2023/06/17 07:01:55;;;;;;;;;14.33;13.33;;;;;29.69;27.58;101120.31;5088053;27;52796;-48
2023/06/17 07:04:20;;;;;;;;;15.67;14.33;;;;;29.58;27.82;101120.84;5096634;27;60274;-48
2023/06/17 07:06:46;;;;;;;;;16.33;15.00;;;;;29.48;27.65;101118.44;5083504;27;46493;-48
2023/06/17 07:09:12;;;;;;;;;17.00;15.00;;;;;29.38;27.78;101126.94;5081211;27;45786;-50
2023/06/17 07:11:37;;;;;;;;;13.00;12.00;;;;;29.30;27.41;101121.59;5088673;27;68989;-48
2023/06/17 07:14:02;;;;;;;;;14.67;14.00;;;;;29.27;27.81;101116.47;5076589;27;57970;-49
2023/06/17 07:16:28;;;;;;;;;15.33;14.00;;;;;29.27;27.56;101125.56;5079039;27;45716;-50
2023/06/17 07:18:53;;;;;;;;;14.33;14.33;;;;;29.30;27.45;101119.69;5078700;27;45916;-50
2023/06/17 07:21:18;;;;;;;;;12.33;12.33;;;;;29.34;27.54;101122.91;5080239;27;45370;-48
2023/06/17 07:23:44;;;;;;;;;14.33;14.33;;;;;29.41;27.92;101118.31;5080513;27;45744;-48
2023/06/17 07:26:09;;;;;;;;;14.00;13.67;;;;;29.49;28.35;101123.72;5078875;27;45645;-48
2023/06/17 07:28:35;;;;;;;;;11.33;11.33;;;;;29.59;27.70;101119.78;5084554;27;46115;-53
2023/06/17 07:31:00;;;;;;;;;13.00;12.67;;;;;29.62;28.21;101125.75;5100266;27;46092;-50
2023/06/17 07:33:26;;;;;;;;;16.00;13.67;;;;;29.57;28.48;101130.09;5089617;27;45898;-52
2023/06/17 07:35:51;;;;;;;;;13.00;13.00;;;;;29.40;27.64;101127.63;5086902;27;45476;-51
2023/06/17 07:38:16;;;;;;;;;15.00;15.00;;;;;29.33;28.36;101129.41;5088405;27;73583;-50
2023/06/17 07:40:42;;;;;;;;;12.33;12.00;;;;;29.36;28.56;101131.78;5076886;27;45501;-52
2023/06/17 07:43:08;;;;;;;;;15.67;14.67;;;;;29.35;28.60;101130.09;5089469;27;46102;-52
2023/06/17 07:45:34;;;;;;;;;14.67;12.33;;;;;29.36;28.70;101129.03;5080723;27;45569;-51
2023/06/17 07:47:59;;;;;;;;;16.67;14.33;;;;;29.33;28.54;101130.28;5086008;27;46145;-50
2023/06/17 07:50:24;;;;;;;;;14.00;13.67;;;;;29.41;28.41;101136.66;5087386;27;70275;-51
2023/06/17 07:52:50;;;;;;;;;14.00;14.00;;;;;29.49;28.51;101128.31;5080924;27;45825;-50
2023/06/17 07:55:16;;;;;;;;;13.67;13.67;;;;;29.60;28.58;101137.94;5087457;27;46904;-51
2023/06/17 07:57:42;;;;;;;;;9.00;9.00;;;;;29.64;28.70;101136.50;5083760;27;47145;-49
2023/06/17 08:00:12;;;;;;;;;14.00;14.00;;;;;29.58;28.75;101132.66;5087201;27;45641;-51
2023/06/17 08:02:41;;;;;;;;;14.00;14.00;;;;;29.65;28.65;101135.47;5084300;27;47919;-50
2023/06/17 08:05:07;;;;;;;;;14.33;14.33;;;;;29.63;28.70;101121.09;5085073;27;46059;-51
2023/06/17 08:07:33;;;;;;;;;13.33;13.33;;;;;29.67;28.45;101119.66;5086634;27;46504;-53
2023/06/17 08:09:58;;;;;;;;;12.00;12.00;;;;;29.78;28.38;101121.03;5077351;27;45437;-49
2023/06/17 08:12:24;;;;;;;;;15.67;15.00;;;;;29.87;28.36;101125.38;5080905;27;51640;-52
2023/06/17 08:14:49;;;;;;;;;13.00;11.67;;;;;30.00;27.89;101113.69;5098788;27;45591;-53
2023/06/17 08:17:14;;;;;;;;;14.33;13.00;;;;;30.08;28.30;101113.53;5088343;27;46013;-50
2023/06/17 08:19:40;;;;;;;;;14.67;13.67;;;;;30.17;28.09;101108.75;5078041;27;45465;-51
2023/06/17 08:22:06;;;;;;;;;12.67;12.33;;;;;30.31;28.25;101116.03;5072841;27;45476;-53
2023/06/17 08:24:32;;;;;;;;;13.00;13.00;;;;;30.41;27.24;101110.19;5084707;27;46990;-52
2023/06/17 08:26:57;;;;;;;;;13.67;11.00;;;;;30.49;27.47;101114.69;5083814;27;46240;-52
2023/06/17 08:29:23;;;;;;;;;13.33;12.00;;;;;30.63;27.40;101105.50;5081776;27;45570;-52
2023/06/17 08:31:50;;;;;;;;;10.33;10.33;;;;;30.97;26.42;101097.41;5080638;27;45614;-52
2023/06/17 08:34:16;;;;;;;;;13.33;12.33;;;;;31.45;26.32;101094.63;5080064;27;45683;-52
2023/06/17 08:36:43;;;;;;;;;17.67;12.67;;;;;32.33;25.96;101095.56;5078011;27;46085;-51
2023/06/17 08:39:09;;;;;;;;;12.33;12.00;;;;;33.02;25.09;101095.16;5089101;27;46022;-48
2023/06/17 08:41:40;;;;;;;;;12.33;11.33;;;;;33.29;24.22;101090.41;5073786;27;45746;-50
2023/06/17 08:44:07;;;;;;;;;15.00;15.00;;;;;33.60;24.14;101092.31;5087297;27;45360;-49
2023/06/17 08:46:33;;;;;;;;;11.33;11.33;;;;;33.98;23.60;101085.03;5083904;27;45577;-48
2023/06/17 08:49:00;;;;;;;;;9.00;5.67;;;;;33.78;22.72;101080.50;5073282;27;46225;-50
2023/06/17 08:51:25;;;;;;;;;14.67;14.67;;;;;33.59;23.39;101081.50;5081658;27;45793;-51
2023/06/17 08:53:51;;;;;;;;;13.33;13.00;;;;;33.69;23.89;101076.34;5082476;27;57184;-52
2023/06/17 08:56:17;;;;;;;;;14.67;12.33;;;;;34.02;23.35;101079.91;5093912;27;46484;-50
2023/06/17 08:58:43;;;;;;;;;12.00;11.33;;;;;34.34;23.29;101080.69;5098555;27;45358;-51
2023/06/17 09:01:09;;;;;;;;;16.00;13.67;;;;;34.72;22.99;101076.84;5088464;27;45522;-53
2023/06/17 09:03:37;;;;;;;;;12.67;12.33;;;;;35.18;21.95;101085.63;5083467;27;45528;-52
2023/06/17 09:06:23;;;;;;;;;11.33;11.33;;;;;35.63;22.14;101073.28;5080054;27;45502;-51
2023/06/17 09:08:53;;;;;;;;;13.33;13.33;;;;;36.57;22.12;101072.50;5082920;27;45544;-52
2023/06/17 09:11:28;;;;;;;;;13.33;12.33;;;;;37.44;21.41;101082.81;5079384;27;45564;-50
2023/06/17 09:13:55;;;;;;;;;16.00;16.00;;;;;38.26;20.94;101077.81;5079070;27;45396;-52
2023/06/17 09:16:33;;;;;;;;;15.33;15.00;;;;;39.01;19.76;101086.56;5089738;27;45491;-52
2023/06/17 09:19:03;;;;;;;;;14.67;14.00;;;;;38.92;19.29;101088.97;5082774;27;45599;-50
2023/06/17 09:21:29;;;;;;;;;14.67;12.67;;;;;38.71;19.19;101088.69;5072330;27;45704;-51
2023/06/17 09:23:56;;;;;;;;;14.00;14.00;;;;;38.38;19.44;101079.38;5091353;27;45511;-52
2023/06/17 09:26:28;;;;;;;;;15.00;15.00;;;;;38.54;19.79;101080.41;5084799;27;45433;-49
2023/06/17 09:28:53;;;;;;;;;16.00;16.00;;;;;39.24;19.57;101084.59;5082086;27;45594;-52
2023/06/17 09:31:18;;;;;;;;;13.67;13.67;;;;;40.53;18.95;101082.84;5083102;27;45528;-49
2023/06/17 09:33:45;;;;;;;;;20.00;17.67;;;;;41.55;18.51;101082.31;5083025;27;45429;-52
2023/06/17 09:36:10;;;;;;;;;15.00;14.00;;;;;42.27;17.44;101076.69;5086638;27;45502;-50
2023/06/17 09:38:37;;;;;;;;;16.00;16.00;;;;;42.86;16.95;101082.59;5099459;27;45495;-52
2023/06/17 09:41:03;;;;;;;;;17.67;17.67;;;;;43.06;16.30;101087.22;5089802;27;45440;-52
2023/06/17 09:43:28;;;;;;;;;16.00;14.67;;;;;43.19;16.51;101077.38;5078388;27;45395;-51
2023/06/17 09:46:01;;;;;;;;;15.00;15.00;;;;;43.66;16.78;101083.47;5088934;27;49284;-50
2023/06/17 09:48:34;;;;;;;;;17.00;15.67;;;;;43.95;15.44;101080.72;5090420;27;45416;-50
2023/06/17 09:50:59;;;;;;;;;15.33;15.33;;;;;44.32;16.17;101072.78;5080470;27;46570;-51
2023/06/17 09:53:27;;;;;;;;;16.00;14.67;;;;;44.53;15.77;101075.31;5079554;27;45386;-49
2023/06/17 09:55:58;;;;;;;;;15.67;15.67;;;;;44.29;15.97;101070.56;5091122;27;46031;-49
2023/06/17 09:58:31;;;;;;;;;16.00;16.00;;;;;44.17;15.70;101070.13;5084593;27;45285;-49
2023/06/17 10:00:57;;;;;;;;;14.33;14.33;;;;;43.62;15.71;101071.19;5081771;27;46746;-51
2023/06/17 10:03:23;;;;;;;;;15.67;15.67;;;;;43.61;15.59;101069.53;5098568;27;45638;-48
2023/06/17 10:05:54;;;;;;;;;20.00;19.67;;;;;43.56;15.23;101073.22;5086006;27;73413;-51
2023/06/17 10:08:21;;;;;;;;;16.33;16.33;;;;;43.31;15.57;101077.00;5092627;27;45454;-50
2023/06/17 10:10:48;;;;;;;;;21.00;19.00;;;;;43.21;16.02;101066.75;5096990;27;45325;-48
2023/06/17 10:13:16;;;;;;;;;18.33;17.67;;;;;43.42;16.33;101073.00;5084962;27;64333;-51
2023/06/17 10:15:41;;;;;;;;;20.67;18.00;;;;;43.49;15.57;101063.47;5086093;27;45572;-51
2023/06/17 10:18:08;;;;;;;;;19.00;19.00;;;;;43.85;16.27;101063.16;5080600;27;68618;-50
2023/06/17 10:20:33;;;;;;;;;21.33;20.33;;;;;44.08;15.32;101050.31;5107424;27;45696;-49
2023/06/17 10:23:01;;;;;;;;;18.67;18.67;;;;;44.43;15.53;101054.72;5084062;27;45645;-52
2023/06/17 10:25:27;;;;;;;;;18.33;18.33;;;;;44.73;15.65;101046.19;5098537;27;46484;-52
2023/06/17 10:27:52;;;;;;;;;20.00;18.00;;;;;44.93;15.34;101048.69;5096928;27;45614;-50
2023/06/17 10:30:28;;;;;;;;;21.67;20.00;;;;;45.30;15.34;101045.38;5083907;27;46076;-51
2023/06/17 10:33:02;;;;;;;;;18.00;18.00;;;;;45.53;14.67;101049.19;5080723;27;45608;-52
2023/06/17 10:35:43;;;;;;;;;19.67;18.33;;;;;45.94;14.56;101045.66;5080831;27;47137;-52
2023/06/17 10:38:10;;;;;;;;;19.67;17.33;;;;;46.70;14.14;101042.44;5080305;27;45530;-52
2023/06/17 10:40:40;;;;;;;;;19.67;19.67;;;;;46.83;13.75;101046.34;5084012;27;45465;-51
2023/06/17 10:43:06;;;;;;;;;19.33;17.33;;;;;46.83;14.02;101046.34;5090215;27;45545;-51
2023/06/17 10:45:34;;;;;;;;;21.67;21.67;;;;;46.62;13.91;101036.69;5084626;27;47253;-58
2023/06/17 10:50:42;;;;;;;;;15.33;15.00;;;;;45.60;14.71;101031.97;5054429;28;45921;-61
2023/06/17 10:53:08;;;;;;;;;17.00;16.33;;;;;44.26;15.27;101029.94;5049367;28;45882;-61
2023/06/17 10:55:33;;;;;;;;;22.00;22.00;;;;;42.98;16.13;101029.94;5060958;28;45478;-61
2023/06/17 10:57:59;;;;;;;;;19.00;19.00;;;;;41.94;16.50;101028.72;5047347;28;53383;-61
2023/06/17 11:00:25;;;;;;;;;19.67;19.67;;;;;41.18;17.40;101022.00;5048261;28;46393;-60
2023/06/17 11:02:50;;;;;;;;;20.00;20.00;;;;;40.70;17.96;101026.91;5051234;28;70186;-60
2023/06/17 11:05:16;;;;;;;;;19.33;18.33;;;;;40.31;17.81;101023.41;5042367;28;45521;-60
2023/06/17 11:07:42;;;;;;;;;22.33;20.67;;;;;40.03;18.46;101024.59;5051274;28;46724;-61